Time;durP1;ratioP1;P1;durP2;ratioP2;P2;SDS_P1;SDS_P2;PMS_P1;PMS_P2;Temp;Humidity;BMP_temperature;BMP_pressure;BME280_temperature;BME280_humidity;BME280_pressure;Samples;Min_cycle;Max_cycle;Signal;HPM_P1;HPM_P2
2021/10/05 00:00:29;;;;;;;1999.90;999.90;;;;;;;6.73;92.30;96370.94;5071117;28;20196;-72
2021/10/05 00:02:56;;;;;;;1999.90;999.90;;;;;;;6.77;92.23;96365.06;5071494;28;20193;-72
2021/10/05 00:05:23;;;;;;;1999.90;999.90;;;;;;;6.69;93.41;96365.50;5071624;28;20201;-72
2021/10/05 00:07:50;;;;;;;1999.90;999.90;;;;;;;6.67;93.79;96372.72;5071367;28;20253;-72
2021/10/05 00:10:18;;;;;;;1999.90;999.90;;;;;;;6.65;94.06;96356.69;5071386;28;20279;-71
2021/10/05 00:12:46;;;;;;;1999.90;999.90;;;;;;;6.63;94.39;96356.16;5070858;28;20285;-71
2021/10/05 00:15:14;;;;;;;1999.90;999.90;;;;;;;6.61;94.61;96365.97;5071068;28;20758;-72
2021/10/05 00:17:41;;;;;;;1999.90;999.90;;;;;;;6.53;93.46;96361.22;5070882;28;20690;-72
2021/10/05 00:20:11;;;;;;;1999.90;999.90;;;;;;;6.38;92.56;96364.47;5071233;28;20201;-71
2021/10/05 00:22:39;;;;;;;1999.90;999.90;;;;;;;6.34;91.83;96362.63;5070871;28;20196;-72
2021/10/05 00:25:07;;;;;;;1999.90;999.90;;;;;;;6.23;92.04;96363.53;5071294;28;20204;-72
2021/10/05 00:27:34;;;;;;;1999.90;999.90;;;;;;;6.23;91.67;96364.31;5070768;28;20208;-72
2021/10/05 00:30:03;;;;;;;1999.90;999.90;;;;;;;6.01;91.21;96366.97;5070922;28;20200;-72
2021/10/05 00:32:30;;;;;;;1999.90;999.90;;;;;;;5.98;91.68;96366.66;5070637;28;20238;-72
2021/10/05 00:34:57;;;;;;;1999.90;999.90;;;;;;;5.99;91.35;96361.25;5070975;28;20236;-72
2021/10/05 00:37:24;;;;;;;1999.90;999.90;;;;;;;6.02;91.33;96360.78;5070418;28;20200;-72
2021/10/05 00:39:51;;;;;;;1999.90;999.90;;;;;;;6.05;91.36;96357.72;5070903;28;20237;-72
2021/10/05 00:42:19;;;;;;;1999.90;999.90;;;;;;;6.04;91.66;96366.47;5070404;28;20270;-72
2021/10/05 00:44:46;;;;;;;1999.90;999.90;;;;;;;5.85;91.29;96362.63;5070427;28;20601;-72
2021/10/05 00:47:15;;;;;;;1999.90;999.90;;;;;;;5.62;91.80;96363.66;5070591;28;20200;-72
2021/10/05 00:49:44;;;;;;;1999.90;999.90;;;;;;;5.64;92.08;96364.19;5070405;28;20718;-72
2021/10/05 00:52:13;;;;;;;1999.90;999.90;;;;;;;5.68;91.44;96367.06;5070348;28;20230;-72
2021/10/05 00:54:42;;;;;;;1999.90;999.90;;;;;;;5.63;91.59;96360.03;5069942;28;20228;-71
2021/10/05 00:57:11;;;;;;;1999.90;999.90;;;;;;;5.56;91.88;96358.69;5070148;28;20200;-72
2021/10/05 00:59:38;;;;;;;1999.90;999.90;;;;;;;5.58;91.94;96356.63;5070298;28;20680;-72
2021/10/05 01:02:09;;;;;;;1999.90;999.90;;;;;;;5.47;91.61;96349.81;5069895;28;20208;-72
2021/10/05 01:04:38;;;;;;;1999.90;999.90;;;;;;;5.36;91.67;96353.28;5070041;28;20188;-71
2021/10/05 01:07:07;;;;;;;1999.90;999.90;;;;;;;5.41;91.34;96353.34;5069841;28;20625;-72
2021/10/05 01:09:35;;;;;;;1999.90;999.90;;;;;;;5.27;90.93;96352.91;5070154;28;20360;-71
2021/10/05 01:12:03;;;;;;;1999.90;999.90;;;;;;;5.31;90.78;96348.06;5069822;28;20232;-71
2021/10/05 01:14:30;;;;;;;1999.90;999.90;;;;;;;5.31;91.27;96348.06;5070060;28;20263;-72
2021/10/05 01:16:59;;;;;;;1999.90;999.90;;;;;;;5.36;91.28;96354.06;5069255;28;20240;-72
2021/10/05 01:19:26;;;;;;;1999.90;999.90;;;;;;;5.41;91.92;96348.19;5069748;28;20204;-72
2021/10/05 01:21:55;;;;;;;1999.90;999.90;;;;;;;5.34;91.63;96339.84;5070065;28;20357;-72
2021/10/05 01:24:24;;;;;;;1999.90;999.90;;;;;;;5.29;91.65;96342.34;5069976;28;20222;-72
2021/10/05 01:26:53;;;;;;;1999.90;999.90;;;;;;;5.24;91.12;96339.69;5069854;28;20258;-72
2021/10/05 01:29:22;;;;;;;1999.90;999.90;;;;;;;5.10;91.92;96340.06;5069555;28;20199;-71
2021/10/05 01:31:52;;;;;;;1999.90;999.90;;;;;;;5.03;92.18;96349.72;5069779;28;20204;-72
2021/10/05 01:34:22;;;;;;;1999.90;999.90;;;;;;;5.13;91.73;96356.84;5069688;28;20220;-72
2021/10/05 01:36:49;;;;;;;1999.90;999.90;;;;;;;5.11;92.18;96351.91;5069561;28;20244;-72
2021/10/05 01:39:26;;;;;;;1999.90;999.90;;;;;;;5.05;92.15;96344.34;5069455;28;20676;-72
2021/10/05 01:41:55;;;;;;;1999.90;999.90;;;;;;;5.22;93.06;96345.13;5069641;28;20726;-72
2021/10/05 01:44:23;;;;;;;1999.90;999.90;;;;;;;5.23;93.06;96343.31;5069251;28;20192;-71
2021/10/05 01:46:51;;;;;;;1999.90;999.90;;;;;;;5.23;94.37;96348.47;5069435;28;20200;-72
2021/10/05 01:49:20;;;;;;;1999.90;999.90;;;;;;;5.22;94.42;96352.84;5069206;28;20228;-72
2021/10/05 01:51:48;;;;;;;1999.90;999.90;;;;;;;5.22;95.33;96352.84;5069259;28;20622;-71
2021/10/05 01:54:15;;;;;;;1999.90;999.90;;;;;;;5.25;95.05;96356.72;5068963;28;20293;-71
2021/10/05 01:56:44;;;;;;;1999.90;999.90;;;;;;;5.32;94.98;96349.63;5069472;28;20204;-71
2021/10/05 01:59:12;;;;;;;1999.90;999.90;;;;;;;5.27;94.97;96345.19;5069585;28;20309;-72
2021/10/05 02:01:40;;;;;;;1999.90;999.90;;;;;;;5.35;94.36;96346.56;5064915;28;20200;-72
2021/10/05 02:04:07;;;;;;;1999.90;999.90;;;;;;;5.24;94.81;96345.63;5066722;28;20287;-72
2021/10/05 02:06:34;;;;;;;1999.90;999.90;;;;;;;5.19;94.63;96348.94;5067904;28;20254;-72
2021/10/05 02:09:02;;;;;;;1999.90;999.90;;;;;;;5.19;94.93;96345.56;5068843;28;20631;-72
2021/10/05 02:11:29;;;;;;;1999.90;999.90;;;;;;;5.13;94.76;96344.72;5068864;28;20272;-72
2021/10/05 02:13:57;;;;;;;1999.90;999.90;;;;;;;5.12;94.48;96345.75;5069194;28;20235;-72
2021/10/05 02:16:24;;;;;;;1999.90;999.90;;;;;;;5.04;95.00;96340.22;5069142;28;20295;-72
2021/10/05 02:18:52;;;;;;;1999.90;999.90;;;;;;;5.07;95.54;96343.13;5068374;28;20668;-72
2021/10/05 02:21:19;;;;;;;1999.90;999.90;;;;;;;5.03;95.94;96347.16;5069127;28;20287;-72
2021/10/05 02:26:32;;;;;;;1999.90;999.90;;;;;;;4.92;94.59;96348.06;5068991;28;20681;-71
2021/10/05 02:29:00;;;;;;;1999.90;999.90;;;;;;;4.78;94.43;96351.97;5069081;28;20232;-71
2021/10/05 02:31:28;;;;;;;1999.90;999.90;;;;;;;4.79;94.61;96348.34;5069092;28;20200;-72
2021/10/05 02:33:55;;;;;;;1999.90;999.90;;;;;;;4.78;94.03;96346.81;5068762;28;20229;-72
2021/10/05 02:36:22;;;;;;;1999.90;999.90;;;;;;;4.88;93.93;96341.78;5068713;28;20291;-71
2021/10/05 02:38:50;;;;;;;1999.90;999.90;;;;;;;4.87;94.54;96340.25;5068793;28;20266;-72
2021/10/05 02:41:17;;;;;;;1999.90;999.90;;;;;;;4.91;93.96;96336.19;5068829;28;20200;-71
2021/10/05 02:43:44;;;;;;;1999.90;999.90;;;;;;;4.89;94.81;96347.72;5068688;28;20201;-71
2021/10/05 02:46:13;;;;;;;1999.90;999.90;;;;;;;4.90;95.00;96344.91;5069091;28;20729;-72
2021/10/05 02:48:40;;;;;;;1999.90;999.90;;;;;;;4.93;95.06;96349.59;5068900;28;20200;-72
2021/10/05 02:51:07;;;;;;;1999.90;999.90;;;;;;;4.86;94.82;96351.56;5069046;28;20223;-72
2021/10/05 02:53:34;;;;;;;1999.90;999.90;;;;;;;4.77;95.12;96352.97;5068540;28;20247;-71
2021/10/05 02:56:01;;;;;;;1999.90;999.90;;;;;;;4.68;94.94;96352.56;5068677;28;20226;-71
2021/10/05 02:58:28;;;;;;;1999.90;999.90;;;;;;;4.66;94.59;96353.84;5068402;28;20753;-72
2021/10/05 03:00:55;;;;;;;1999.90;999.90;;;;;;;4.46;92.70;96348.38;5068535;28;20212;-71
2021/10/05 03:03:23;;;;;;;1999.90;999.90;;;;;;;4.39;92.62;96360.59;5068471;28;20281;-71
2021/10/05 03:05:50;;;;;;;1999.90;999.90;;;;;;;4.35;93.18;96357.72;5068391;28;20266;-73
2021/10/05 03:08:17;;;;;;;1999.90;999.90;;;;;;;4.38;92.78;96357.25;5068963;28;20272;-71
2021/10/05 03:10:44;;;;;;;1999.90;999.90;;;;;;;4.26;93.65;96352.16;5068749;28;20204;-72
2021/10/05 03:13:11;;;;;;;1999.90;999.90;;;;;;;4.20;92.89;96353.09;5068337;28;20204;-73
2021/10/05 03:15:38;;;;;;;1999.90;999.90;;;;;;;3.90;91.67;96355.13;5068264;28;20651;-73
2021/10/05 03:18:06;;;;;;;1999.90;999.90;;;;;;;3.88;91.85;96357.94;5068403;28;20665;-73
2021/10/05 03:20:34;;;;;;;1999.90;999.90;;;;;;;4.00;91.49;96354.53;5068645;28;20204;-73
2021/10/05 03:23:01;;;;;;;1999.90;999.90;;;;;;;4.00;92.77;96354.53;5068783;28;20254;-73
2021/10/05 03:25:28;;;;;;;1999.90;999.90;;;;;;;3.84;92.31;96349.09;5067737;28;20189;-73
2021/10/05 03:27:55;;;;;;;1999.90;999.90;;;;;;;3.79;93.34;96359.28;5068424;28;20228;-72
2021/10/05 03:30:22;;;;;;;1999.90;999.90;;;;;;;3.82;92.27;96363.22;5068359;28;20231;-72
2021/10/05 03:32:49;;;;;;;1999.90;999.90;;;;;;;3.86;92.80;96359.16;5071266;28;20780;-72
2021/10/05 03:35:16;;;;;;;1999.90;999.90;;;;;;;3.89;93.29;96366.41;5071922;28;20311;-72
2021/10/05 03:37:44;;;;;;;1999.90;999.90;;;;;;;3.90;94.23;96367.97;5071877;28;20279;-72
2021/10/05 03:40:13;;;;;;;1999.90;999.90;;;;;;;4.01;94.72;96372.31;5071860;28;20200;-72
2021/10/05 03:42:40;;;;;;;1999.90;999.90;;;;;;;4.01;94.23;96367.16;5071354;28;20199;-72
2021/10/05 03:45:08;;;;;;;1999.90;999.90;;;;;;;4.22;95.35;96369.09;5071434;28;20250;-72
2021/10/05 03:47:36;;;;;;;1999.90;999.90;;;;;;;4.20;95.43;96373.66;5071363;28;20970;-73
2021/10/05 03:50:05;;;;;;;1999.90;999.90;;;;;;;4.21;96.28;96372.66;5071786;28;20201;-73
2021/10/05 03:52:32;;;;;;;1999.90;999.90;;;;;;;4.30;95.60;96375.63;5071655;28;20570;-73
2021/10/05 03:55:00;;;;;;;1999.90;999.90;;;;;;;4.26;95.35;96377.13;5071243;28;20233;-73
2021/10/05 03:57:27;;;;;;;1999.90;999.90;;;;;;;4.11;96.52;96371.69;5071628;28;20295;-73
2021/10/05 03:59:54;;;;;;;1999.90;999.90;;;;;;;4.03;96.42;96372.88;5071285;28;20207;-72
2021/10/05 04:02:21;;;;;;;1999.90;999.90;;;;;;;4.03;96.79;96369.50;5071584;28;20561;-72
2021/10/05 04:04:49;;;;;;;1999.90;999.90;;;;;;;4.08;95.82;96370.38;5071022;28;20246;-72
2021/10/05 04:07:16;;;;;;;1999.90;999.90;;;;;;;4.02;95.93;96379.00;5071564;28;20578;-72
2021/10/05 04:09:43;;;;;;;1999.90;999.90;;;;;;;4.00;97.00;96375.88;5071376;28;20208;-72
2021/10/05 04:12:11;;;;;;;1999.90;999.90;;;;;;;4.00;96.74;96370.72;5071341;28;20279;-72
2021/10/05 04:14:39;;;;;;;1999.90;999.90;;;;;;;4.04;97.33;96374.41;5070999;28;20311;-72
2021/10/05 04:17:06;;;;;;;1999.90;999.90;;;;;;;4.05;97.05;96373.41;5070955;28;20718;-73
2021/10/05 04:19:33;;;;;;;1999.90;999.90;;;;;;;4.05;96.60;96372.63;5070844;28;20235;-72
2021/10/05 04:22:00;;;;;;;1999.90;999.90;;;;;;;4.14;97.91;96384.88;5070729;28;20250;-73
2021/10/05 04:24:27;;;;;;;1999.90;999.90;;;;;;;4.17;97.64;96389.56;5070769;28;20254;-72
2021/10/05 04:26:54;;;;;;;1999.90;999.90;;;;;;;4.02;96.59;96391.09;5070659;28;20269;-72
2021/10/05 04:29:23;;;;;;;1999.90;999.90;;;;;;;4.00;97.42;96391.31;5070596;28;20254;-72
2021/10/05 04:31:50;;;;;;;1999.90;999.90;;;;;;;4.03;96.58;96385.72;5070596;28;20324;-73
2021/10/05 04:34:17;;;;;;;1999.90;999.90;;;;;;;4.06;96.29;96387.81;5070530;28;20289;-73
2021/10/05 04:36:44;;;;;;;1999.90;999.90;;;;;;;4.10;97.14;96388.13;5070886;28;20210;-72
2021/10/05 04:39:11;;;;;;;1999.90;999.90;;;;;;;4.15;96.21;96394.16;5070504;28;20199;-72
2021/10/05 04:41:38;;;;;;;1999.90;999.90;;;;;;;4.25;96.76;96391.75;5069942;28;20567;-72
2021/10/05 04:44:05;;;;;;;1999.90;999.90;;;;;;;4.18;96.50;96396.28;5070553;28;20197;-72
2021/10/05 04:46:34;;;;;;;1999.90;999.90;;;;;;;4.21;96.88;96395.81;5070360;28;20254;-72
2021/10/05 04:49:01;;;;;;;1999.90;999.90;;;;;;;4.09;97.78;96399.44;5070417;28;20218;-72
2021/10/05 04:51:28;;;;;;;1999.90;999.90;;;;;;;4.01;97.59;96397.22;5070301;28;20277;-72
2021/10/05 04:53:55;;;;;;;1999.90;999.90;;;;;;;4.17;97.64;96406.78;5070168;28;20234;-72
2021/10/05 04:56:22;;;;;;;1999.90;999.90;;;;;;;4.27;97.63;96407.75;5070442;28;20200;-71
2021/10/05 04:58:49;;;;;;;1999.90;999.90;;;;;;;4.29;96.78;96416.00;5070018;28;20254;-72
2021/10/05 05:01:16;;;;;;;1999.90;999.90;;;;;;;4.21;97.42;96408.69;5070217;28;20204;-72
2021/10/05 05:03:44;;;;;;;1999.90;999.90;;;;;;;4.32;95.54;96420.72;5069940;28;20192;-72
2021/10/05 05:06:11;;;;;;;1999.90;999.90;;;;;;;4.45;96.70;96418.84;5069824;28;20270;-72
2021/10/05 05:08:38;;;;;;;1999.90;999.90;;;;;;;4.63;96.19;96426.38;5070079;28;20292;-72
2021/10/05 05:11:05;;;;;;;1999.90;999.90;;;;;;;4.83;95.64;96426.72;5070293;28;20736;-72
2021/10/05 05:13:32;;;;;;;1999.90;999.90;;;;;;;4.94;95.51;96425.06;5069866;28;20200;-72
2021/10/05 05:15:59;;;;;;;1999.90;999.90;;;;;;;5.03;95.51;96426.25;5069676;28;20228;-73
2021/10/05 05:18:26;;;;;;;1999.90;999.90;;;;;;;5.03;96.59;96426.25;5069948;28;20196;-72
2021/10/05 05:20:55;;;;;;;1999.90;999.90;;;;;;;5.00;97.70;96429.28;5070193;28;20219;-72
2021/10/05 05:23:22;;;;;;;1999.90;999.90;;;;;;;5.07;97.28;96422.97;5069865;28;20283;-72
2021/10/05 05:25:49;;;;;;;1999.90;999.90;;;;;;;5.09;98.07;96426.06;5069738;28;20227;-72
2021/10/05 05:28:16;;;;;;;1999.90;999.90;;;;;;;5.13;98.47;96427.16;5069646;28;20200;-73
2021/10/05 05:30:43;;;;;;;1999.90;999.90;;;;;;;5.12;98.29;96432.56;5069399;28;20196;-72
2021/10/05 05:33:10;;;;;;;1999.90;999.90;;;;;;;5.12;98.84;96433.34;5069070;28;20239;-72
2021/10/05 05:35:37;;;;;;;1999.90;999.90;;;;;;;5.14;100.00;96438.25;5068745;28;20251;-72
2021/10/05 05:38:06;;;;;;;1999.90;999.90;;;;;;;5.34;100.00;96435.19;5069482;28;20215;-72
2021/10/05 05:40:33;;;;;;;1999.90;999.90;;;;;;;5.66;100.00;96443.88;5069155;28;20215;-72
2021/10/05 05:43:00;;;;;;;1999.90;999.90;;;;;;;6.71;99.69;96433.19;5069507;28;20204;-73
2021/10/05 05:45:28;;;;;;;1999.90;999.90;;;;;;;7.91;94.42;96431.66;5069326;28;20192;-73
2021/10/05 05:47:55;;;;;;;1999.90;999.90;;;;;;;8.98;88.15;96430.06;5069458;28;20211;-73
2021/10/05 05:50:22;;;;;;;1999.90;999.90;;;;;;;10.37;83.74;96431.03;5069120;28;20208;-72
2021/10/05 05:52:49;;;;;;;1999.90;999.90;;;;;;;11.44;78.81;96428.41;5068870;28;20200;-73
2021/10/05 05:55:18;;;;;;;1999.90;999.90;;;;;;;12.31;73.81;96432.38;5068550;28;20224;-73
2021/10/05 05:57:48;;;;;;;1999.90;999.90;;;;;;;12.44;72.36;96436.94;5066092;28;20782;-73
2021/10/05 06:00:16;;;;;;;1999.90;999.90;;;;;;;11.85;72.83;96445.22;5068805;28;20232;-72
2021/10/05 06:02:43;;;;;;;1999.90;999.90;;;;;;;11.55;75.28;96442.88;5069401;28;20199;-72
2021/10/05 06:05:10;;;;;;;1999.90;999.90;;;;;;;11.30;76.65;96448.31;5068831;28;20200;-72
2021/10/05 06:07:37;;;;;;;1999.90;999.90;;;;;;;11.44;77.24;96444.81;5068962;28;20517;-72
2021/10/05 06:10:05;;;;;;;1999.90;999.90;;;;;;;11.61;76.85;96436.56;5068803;28;20200;-72
2021/10/05 06:12:38;;;;;;;1999.90;999.90;;;;;;;11.84;76.48;96430.63;5068782;28;20192;-72
2021/10/05 06:15:07;;;;;;;1999.90;999.90;;;;;;;11.98;75.75;96436.72;5068713;28;20208;-72
2021/10/05 06:17:36;;;;;;;1999.90;999.90;;;;;;;11.96;76.53;96427.59;5069360;28;20332;-73
2021/10/05 06:20:05;;;;;;;1999.90;999.90;;;;;;;11.69;76.88;96441.19;5068745;28;20267;-72
2021/10/05 06:22:33;;;;;;;1999.90;999.90;;;;;;;11.19;79.31;96440.59;5068814;28;20281;-72
2021/10/05 06:25:00;;;;;;;1999.90;999.90;;;;;;;10.99;80.63;96432.19;5068687;28;20202;-72
2021/10/05 06:27:27;;;;;;;1999.90;999.90;;;;;;;11.29;80.06;96437.13;5068985;28;20200;-72
2021/10/05 06:29:58;;;;;;;1999.90;999.90;;;;;;;11.19;79.90;96438.00;5068420;28;20296;-72
2021/10/05 06:32:25;;;;;;;1999.90;999.90;;;;;;;11.28;81.38;96445.97;5068579;28;20276;-72
2021/10/05 06:34:53;;;;;;;1999.90;999.90;;;;;;;11.52;80.62;96444.19;5068542;28;20643;-72
2021/10/05 06:37:20;;;;;;;1999.90;999.90;;;;;;;11.68;80.79;96439.63;5068846;28;20192;-72
2021/10/05 06:39:47;;;;;;;1999.90;999.90;;;;;;;11.90;79.83;96442.53;5068371;28;20266;-72
2021/10/05 06:42:14;;;;;;;1999.90;999.90;;;;;;;11.98;82.11;96438.53;5068778;28;20221;-72
2021/10/05 06:44:42;;;;;;;1999.90;999.90;;;;;;;12.02;82.92;96435.09;5068814;28;20244;-72
2021/10/05 06:47:10;;;;;;;1999.90;999.90;;;;;;;12.21;83.07;96431.75;5068639;28;20253;-72
2021/10/05 06:49:37;;;;;;;1999.90;999.90;;;;;;;12.16;83.95;96431.78;5068322;28;20223;-72
2021/10/05 06:52:06;;;;;;;1999.90;999.90;;;;;;;12.35;83.33;96430.75;5068390;28;20212;-72
2021/10/05 06:54:33;;;;;;;1999.90;999.90;;;;;;;12.62;80.89;96424.94;5068210;28;20255;-72
2021/10/05 06:57:00;;;;;;;1999.90;999.90;;;;;;;12.78;82.25;96420.28;5068363;28;20624;-72
2021/10/05 06:59:27;;;;;;;1999.90;999.90;;;;;;;13.01;79.65;96413.38;5068255;28;20382;-72
2021/10/05 07:01:54;;;;;;;1999.90;999.90;;;;;;;12.99;80.29;96416.31;5068187;28;20284;-72
2021/10/05 07:04:23;;;;;;;1999.90;999.90;;;;;;;13.25;78.87;96414.84;5068325;28;20201;-72
2021/10/05 07:06:50;;;;;;;1999.90;999.90;;;;;;;13.40;78.61;96413.03;5071954;28;20692;-72
2021/10/05 07:09:17;;;;;;;1999.90;999.90;;;;;;;13.32;76.69;96414.47;5071810;28;20258;-71
2021/10/05 07:11:45;;;;;;;1999.90;999.90;;;;;;;13.42;76.90;96418.72;5071955;28;20250;-71
2021/10/05 07:14:12;;;;;;;1999.90;999.90;;;;;;;13.55;78.07;96407.56;5072057;28;20203;-72
2021/10/05 07:16:39;;;;;;;1999.90;999.90;;;;;;;13.69;76.24;96409.09;5071658;28;20224;-72
2021/10/05 07:19:06;;;;;;;1999.90;999.90;;;;;;;13.71;77.12;96408.78;5071756;28;20254;-72
2021/10/05 07:21:35;;;;;;;1999.90;999.90;;;;;;;13.65;78.85;96402.88;5072146;28;20738;-71
2021/10/05 07:24:02;;;;;;;1999.90;999.90;;;;;;;13.67;78.62;96407.84;5071605;28;20692;-72
2021/10/05 07:26:29;;;;;;;1999.90;999.90;;;;;;;13.86;77.42;96418.19;5071721;28;20223;-71
2021/10/05 07:28:56;;;;;;;1999.90;999.90;;;;;;;13.94;76.15;96417.53;5071705;28;20661;-72
2021/10/05 07:31:23;;;;;;;1999.90;999.90;;;;;;;14.14;76.02;96414.50;5072177;28;20258;-71
2021/10/05 07:33:50;;;;;;;1999.90;999.90;;;;;;;14.23;76.80;96412.75;5071456;28;20197;-72
2021/10/05 07:36:18;;;;;;;1999.90;999.90;;;;;;;14.50;75.71;96412.69;5071832;28;20676;-71
2021/10/05 07:38:47;;;;;;;1999.90;999.90;;;;;;;14.57;75.01;96414.91;5072008;28;20303;-71
2021/10/05 07:41:14;;;;;;;1999.90;999.90;;;;;;;14.72;75.51;96405.94;5071579;28;20196;-71
2021/10/05 07:43:41;;;;;;;1999.90;999.90;;;;;;;14.96;75.09;96404.59;5071713;28;20970;-71
2021/10/05 07:46:08;;;;;;;1999.90;999.90;;;;;;;15.00;74.02;96405.53;5071510;28;20315;-71
2021/10/05 07:48:35;;;;;;;1999.90;999.90;;;;;;;15.09;73.63;96402.97;5071737;28;20196;-72
2021/10/05 07:51:02;;;;;;;1999.90;999.90;;;;;;;15.14;73.40;96405.47;5071608;28;20631;-72
2021/10/05 07:53:29;;;;;;;1999.90;999.90;;;;;;;15.22;73.17;96409.19;5071514;28;20286;-71
2021/10/05 07:55:57;;;;;;;1999.90;999.90;;;;;;;15.30;73.52;96401.38;5071207;28;20308;-71
2021/10/05 07:58:24;;;;;;;1999.90;999.90;;;;;;;15.50;72.83;96406.09;5071200;28;20258;-71
2021/10/05 08:00:51;;;;;;;1999.90;999.90;;;;;;;15.63;70.44;96406.34;5071378;28;20227;-71
2021/10/05 08:03:18;;;;;;;1999.90;999.90;;;;;;;15.63;71.93;96403.72;5071577;28;20845;-71
2021/10/05 08:05:45;;;;;;;1999.90;999.90;;;;;;;15.81;69.39;96398.25;5071097;28;20616;-72
2021/10/05 08:08:12;;;;;;;1999.90;999.90;;;;;;;15.95;70.70;96400.75;5071533;28;20201;-71
2021/10/05 08:10:42;;;;;;;1999.90;999.90;;;;;;;16.08;69.99;96392.00;5071595;28;20258;-71
2021/10/05 08:13:11;;;;;;;1999.90;999.90;;;;;;;16.38;68.31;96392.97;5071179;28;20265;-71
2021/10/05 08:15:39;;;;;;;1999.90;999.90;;;;;;;16.40;68.96;96387.41;5071064;28;20220;-72
2021/10/05 08:18:06;;;;;;;1999.90;999.90;;;;;;;16.54;67.21;96395.88;5070506;28;20196;-71
2021/10/05 08:20:33;;;;;;;1999.90;999.90;;;;;;;16.69;67.96;96390.19;5071553;28;20204;-71
2021/10/05 08:23:01;;;;;;;1999.90;999.90;;;;;;;16.83;67.31;96396.09;5070852;28;20735;-72
2021/10/05 08:25:28;;;;;;;1999.90;999.90;;;;;;;16.82;66.48;96386.66;5070789;28;20220;-71
2021/10/05 08:27:55;;;;;;;1999.90;999.90;;;;;;;16.87;67.42;96389.13;5070816;28;20200;-72
2021/10/05 08:30:23;;;;;;;1999.90;999.90;;;;;;;17.02;66.67;96393.88;5070866;28;20247;-72
2021/10/05 08:32:51;;;;;;;1999.90;999.90;;;;;;;17.18;64.55;96392.28;5070896;28;20286;-72
2021/10/05 08:35:19;;;;;;;1999.90;999.90;;;;;;;17.30;64.90;96383.00;5070371;28;20224;-71
2021/10/05 08:37:45;;;;;;;1999.90;999.90;;;;;;;17.43;65.19;96380.19;5070610;28;20244;-72
2021/10/05 08:40:14;;;;;;;1999.90;999.90;;;;;;;17.58;65.44;96384.91;5070662;28;20193;-71
2021/10/05 08:42:41;;;;;;;1999.90;999.90;;;;;;;17.81;62.96;96367.06;5070791;28;20201;-71
2021/10/05 08:45:10;;;;;;;1999.90;999.90;;;;;;;17.82;64.50;96363.34;5070767;28;20281;-71
2021/10/05 08:47:39;;;;;;;1999.90;999.90;;;;;;;17.95;63.55;96364.19;5070956;28;20192;-71
2021/10/05 08:50:07;;;;;;;1999.90;999.90;;;;;;;17.77;63.83;96370.63;5070398;28;20345;-72
2021/10/05 08:52:34;;;;;;;1999.90;999.90;;;;;;;18.17;62.69;96369.16;5070608;28;20200;-71
2021/10/05 08:55:02;;;;;;;1999.90;999.90;;;;;;;18.32;62.54;96368.59;5070184;28;20671;-71
2021/10/05 08:57:29;;;;;;;1999.90;999.90;;;;;;;18.48;60.90;96374.81;5070613;28;20221;-71
2021/10/05 08:59:56;;;;;;;1999.90;999.90;;;;;;;18.49;60.73;96367.69;5070256;28;20210;-71
2021/10/05 09:02:23;;;;;;;1999.90;999.90;;;;;;;18.43;58.80;96359.19;5070197;28;20209;-71
2021/10/05 09:04:57;;;;;;;1999.90;999.90;;;;;;;18.51;60.50;96357.63;5070097;28;20240;-71
2021/10/05 09:07:25;;;;;;;1999.90;999.90;;;;;;;18.71;58.52;96366.59;5070211;28;20184;-72
2021/10/05 09:09:55;;;;;;;1999.90;999.90;;;;;;;18.65;60.06;96355.50;5069946;28;20693;-71
2021/10/05 09:12:23;;;;;;;1999.90;999.90;;;;;;;18.81;58.49;96345.91;5070000;28;20193;-71
2021/10/05 09:14:51;;;;;;;1999.90;999.90;;;;;;;18.96;58.34;96341.13;5069970;28;20205;-71
2021/10/05 09:17:23;;;;;;;1999.90;999.90;;;;;;;19.08;58.32;96349.06;5069726;28;20626;-71
2021/10/05 09:19:52;;;;;;;1999.90;999.90;;;;;;;19.22;56.04;96338.97;5069607;28;20197;-71
2021/10/05 09:22:23;;;;;;;1999.90;999.90;;;;;;;19.22;56.48;96336.34;5069813;28;20224;-71
2021/10/05 09:24:53;;;;;;;1999.90;999.90;;;;;;;19.32;57.84;96341.19;5069769;28;21060;-72
2021/10/05 09:27:21;;;;;;;1999.90;999.90;;;;;;;19.46;56.48;96333.00;5069866;28;20210;-71
2021/10/05 09:29:49;;;;;;;1999.90;999.90;;;;;;;19.43;57.46;96336.28;5069481;28;20228;-71
2021/10/05 09:32:19;;;;;;;1999.90;999.90;;;;;;;19.51;57.69;96336.19;5069614;28;20192;-71
2021/10/05 09:34:51;;;;;;;1999.90;999.90;;;;;;;19.58;55.32;96325.84;5069634;28;20227;-71
2021/10/05 09:37:20;;;;;;;1999.90;999.90;;;;;;;19.73;56.92;96319.91;5069293;28;20212;-71
2021/10/05 09:39:50;;;;;;;1999.90;999.90;;;;;;;19.64;57.60;96308.69;5069422;28;20227;-71
2021/10/05 09:42:23;;;;;;;1999.90;999.90;;;;;;;19.62;57.28;96320.69;5069565;28;20204;-71
2021/10/05 09:44:54;;;;;;;1999.90;999.90;;;;;;;19.94;56.74;96321.63;5069516;28;20203;-71
2021/10/05 09:47:35;;;;;;;1999.90;999.90;;;;;;;20.15;55.66;96316.97;5069525;28;20274;-70
2021/10/05 09:50:03;;;;;;;1999.90;999.90;;;;;;;20.20;55.89;96325.44;5069280;28;20625;-72
2021/10/05 09:52:46;;;;;;;1999.90;999.90;;;;;;;20.34;54.89;96325.09;5069085;28;20283;-72
2021/10/05 09:55:14;;;;;;;1999.90;999.90;;;;;;;20.28;53.22;96315.06;5069095;28;20660;-72
2021/10/05 09:57:43;;;;;;;1999.90;999.90;;;;;;;20.31;53.99;96323.13;5069267;28;20307;-72
2021/10/05 10:00:11;;;;;;;1999.90;999.90;;;;;;;20.44;52.60;96324.63;5069111;28;20291;-71
2021/10/05 10:02:40;;;;;;;1999.90;999.90;;;;;;;20.21;51.91;96313.00;5069466;28;20301;-71
2021/10/05 10:05:09;;;;;;;1999.90;999.90;;;;;;;20.25;52.88;96319.16;5069136;28;20715;-71
2021/10/05 10:07:40;;;;;;;1999.90;999.90;;;;;;;20.48;53.04;96317.56;5069065;28;20192;-71
2021/10/05 10:10:11;;;;;;;1999.90;999.90;;;;;;;20.56;52.13;96315.88;5069027;28;20192;-71
2021/10/05 10:12:39;;;;;;;1999.90;999.90;;;;;;;20.38;52.66;96304.84;5066460;28;20960;-71
2021/10/05 10:15:09;;;;;;;1999.90;999.90;;;;;;;20.45;53.26;96307.69;5059309;28;20203;-71
2021/10/05 10:17:37;;;;;;;1999.90;999.90;;;;;;;20.59;53.68;96304.63;5068804;28;20220;-71
2021/10/05 10:20:05;;;;;;;1999.90;999.90;;;;;;;20.57;52.52;96291.03;5069115;28;20204;-72
2021/10/05 10:22:43;;;;;;;1999.90;999.90;;;;;;;20.83;52.63;96293.19;5068781;28;20231;-71
2021/10/05 10:25:20;;;;;;;1999.90;999.90;;;;;;;21.00;50.66;96292.88;5069002;28;20565;-71
2021/10/05 10:27:47;;;;;;;1999.90;999.90;;;;;;;21.11;50.30;96291.25;5069188;28;20281;-72
2021/10/05 10:30:15;;;;;;;1999.90;999.90;;;;;;;21.07;50.88;96289.66;5068908;28;20291;-71
2021/10/05 10:32:45;;;;;;;1999.90;999.90;;;;;;;21.19;51.46;96285.06;5069008;28;20334;-71
2021/10/05 10:35:13;;;;;;;1999.90;999.90;;;;;;;21.17;51.07;96279.34;5069213;28;20207;-72
2021/10/05 10:37:45;;;;;;;1999.90;999.90;;;;;;;21.25;50.82;96285.56;5068507;28;20263;-71
2021/10/05 10:40:15;;;;;;;1999.90;999.90;;;;;;;21.35;50.32;96282.41;5069920;28;20850;-71
2021/10/05 10:42:43;;;;;;;1999.90;999.90;;;;;;;21.23;49.98;96290.41;5072820;28;20181;-72
2021/10/05 10:45:17;;;;;;;1999.90;999.90;;;;;;;21.30;49.43;96274.72;5073049;28;20249;-71
2021/10/05 10:47:46;;;;;;;1999.90;999.90;;;;;;;21.40;50.03;96269.69;5072943;28;20246;-72
2021/10/05 10:50:15;;;;;;;1999.90;999.90;;;;;;;21.18;49.55;96275.59;5072663;28;20211;-72
2021/10/05 10:52:44;;;;;;;1999.90;999.90;;;;;;;21.31;48.77;96274.41;5072628;28;20204;-72
2021/10/05 10:55:14;;;;;;;1999.90;999.90;;;;;;;21.43;49.38;96266.34;5072502;28;20236;-71
2021/10/05 10:57:44;;;;;;;1999.90;999.90;;;;;;;21.53;49.44;96259.00;5072642;28;20254;-71
2021/10/05 11:00:20;;;;;;;1999.90;999.90;;;;;;;21.65;50.10;96267.59;5071874;28;20659;-72
2021/10/05 11:02:49;;;;;;;1999.90;999.90;;;;;;;22.02;49.46;96269.94;5072476;28;20273;-72